Time;durP1;ratioP1;P1;durP2;ratioP2;P2;SDS_P1;SDS_P2;PMS_P1;PMS_P2;Temp;Humidity;BMP_temperature;BMP_pressure;BME280_temperature;BME280_humidity;BME280_pressure;Samples;Min_cycle;Max_cycle;Signal;HPM_P1;HPM_P2
2021/12/29 00:00:51;;;;;;;4.87;1.50;;;;;;;;;;4997897;28;20208;-76
2021/12/29 00:03:17;;;;;;;3.70;1.80;;;;;;;;;;4998094;28;20192;-77
2021/12/29 00:05:43;;;;;;;2.83;1.30;;;;;;;;;;5015855;28;20555;-77
2021/12/29 00:08:09;;;;;;;3.10;1.30;;;;;;;;;;5002051;28;20232;-77
2021/12/29 00:10:36;;;;;;;2.53;1.70;;;;;;;;;;5018154;28;20189;-77
2021/12/29 00:13:04;;;;;;;3.83;1.40;;;;;;;;;;5018010;28;20205;-77
2021/12/29 00:15:30;;;;;;;1.67;1.20;;;;;;;;;;5017919;28;20301;-77
2021/12/29 00:17:57;;;;;;;3.17;1.30;;;;;;;;;;5018014;28;20174;-77
2021/12/29 00:20:28;;;;;;;2.43;1.10;;;;;;;;;;5018197;28;20182;-77
2021/12/29 00:22:54;;;;;;;1.33;1.10;;;;;;;;;;5035750;28;20229;-77
2021/12/29 00:25:20;;;;;;;2.43;1.10;;;;;;;;;;5017814;28;20668;-77
2021/12/29 00:27:46;;;;;;;1.87;1.30;;;;;;;;;;5036071;28;20174;-77
2021/12/29 00:30:13;;;;;;;2.50;1.00;;;;;;;;;;5001548;28;20608;-77
2021/12/29 00:32:39;;;;;;;2.37;1.30;;;;;;;;;;5001316;28;20214;-77
2021/12/29 00:35:08;;;;;;;3.17;1.30;;;;;;;;;;5017532;28;20225;-77
2021/12/29 00:37:34;;;;;;;2.27;1.33;;;;;;;;;;5017794;28;20629;-77
2021/12/29 00:40:00;;;;;;;2.27;1.20;;;;;;;;;;5017616;28;20174;-77
2021/12/29 00:42:26;;;;;;;2.47;1.40;;;;;;;;;;5017590;28;20209;-77
2021/12/29 00:44:53;;;;;;;2.33;1.20;;;;;;;;;;5017497;28;20224;-77
2021/12/29 00:47:19;;;;;;;2.43;1.40;;;;;;;;;;5035403;28;20206;-77
2021/12/29 00:49:46;;;;;;;3.63;1.30;;;;;;;;;;5001552;28;20617;-77
2021/12/29 00:52:13;;;;;;;3.47;1.77;;;;;;;;;;5001160;28;20293;-77
2021/12/29 00:54:40;;;;;;;2.73;1.70;;;;;;;;;;5017424;28;20198;-77
2021/12/29 00:57:06;;;;;;;3.13;1.53;;;;;;;;;;5001045;28;20197;-77
2021/12/29 00:59:32;;;;;;;3.67;1.80;;;;;;;;;;5017529;28;20217;-77
2021/12/29 01:01:58;;;;;;;3.77;2.10;;;;;;;;;;5001091;28;20185;-77
2021/12/29 01:04:25;;;;;;;4.53;2.00;;;;;;;;;;5017107;28;20240;-77
2021/12/29 01:06:52;;;;;;;3.40;2.13;;;;;;;;;;5017079;28;20175;-78
2021/12/29 01:09:18;;;;;;;2.83;2.00;;;;;;;;;;5001181;28;20277;-77
2021/12/29 01:11:44;;;;;;;3.47;2.20;;;;;;;;;;5000236;28;20198;-77
2021/12/29 01:14:11;;;;;;;4.00;2.33;;;;;;;;;;5017241;28;20186;-77
2021/12/29 01:16:37;;;;;;;4.53;2.03;;;;;;;;;;5000009;28;20188;-77
2021/12/29 01:19:06;;;;;;;3.23;1.90;;;;;;;;;;5016981;28;20178;-77
2021/12/29 01:21:33;;;;;;;3.47;2.10;;;;;;;;;;5016601;28;20221;-77
2021/12/29 01:24:00;;;;;;;2.43;1.97;;;;;;;;;;5016852;28;20178;-77
2021/12/29 01:26:26;;;;;;;2.43;1.90;;;;;;;;;;5016664;28;20212;-77
2021/12/29 01:28:52;;;;;;;4.00;2.17;;;;;;;;;;5000629;28;20197;-77
2021/12/29 01:31:18;;;;;;;3.53;2.13;;;;;;;;;;5000191;28;20193;-77
2021/12/29 01:33:44;;;;;;;3.40;2.10;;;;;;;;;;5016790;28;20182;-77
2021/12/29 01:36:10;;;;;;;4.00;2.20;;;;;;;;;;5000278;28;20244;-77
2021/12/29 01:38:36;;;;;;;2.67;2.10;;;;;;;;;;5000379;28;20218;-77
2021/12/29 01:41:03;;;;;;;5.03;2.57;;;;;;;;;;4999979;28;20209;-77
2021/12/29 01:43:29;;;;;;;4.07;2.30;;;;;;;;;;5000455;28;20174;-77
2021/12/29 01:45:55;;;;;;;3.27;2.20;;;;;;;;;;5016452;28;20248;-77
2021/12/29 01:48:21;;;;;;;3.40;2.33;;;;;;;;;;5000187;28;20578;-77
2021/12/29 01:50:52;;;;;;;3.37;2.30;;;;;;;;;;5016271;28;20205;-77
2021/12/29 01:53:26;;;;;;;2.67;2.13;;;;;;;;;;5000513;28;20206;-77
2021/12/29 01:55:52;;;;;;;3.70;2.40;;;;;;;;;;5001117;28;20196;-77
2021/12/29 01:58:20;;;;;;;3.03;2.40;;;;;;;;;;5016406;28;20170;-77
2021/12/29 02:00:46;;;;;;;2.87;2.50;;;;;;;;;;5000095;28;20174;-77
2021/12/29 02:03:12;;;;;;;3.03;2.30;;;;;;;;;;4999982;28;20185;-76
2021/12/29 02:05:39;;;;;;;3.03;2.63;;;;;;;;;;4999833;28;20208;-76
2021/12/29 02:08:05;;;;;;;3.40;2.07;;;;;;;;;;5015920;28;20280;-77
2021/12/29 02:10:36;;;;;;;2.30;2.00;;;;;;;;;;5015981;28;20239;-77
2021/12/29 02:13:02;;;;;;;2.50;2.00;;;;;;;;;;5015926;28;20275;-77
2021/12/29 02:15:28;;;;;;;2.30;2.00;;;;;;;;;;4999684;28;20202;-77
2021/12/29 02:17:54;;;;;;;2.60;1.70;;;;;;;;;;4999632;28;20236;-77
2021/12/29 02:20:21;;;;;;;2.10;1.90;;;;;;;;;;4999425;28;20184;-77
2021/12/29 02:23:01;;;;;;;1.70;1.47;;;;;;;;;;5015637;28;20186;-77
2021/12/29 02:25:46;;;;;;;1.70;1.60;;;;;;;;;;5015736;28;20202;-77
2021/12/29 02:28:13;;;;;;;3.53;1.50;;;;;;;;;;5001825;28;20212;-77
2021/12/29 02:30:39;;;;;;;1.60;1.50;;;;;;;;;;5015425;28;20182;-77
2021/12/29 02:33:06;;;;;;;1.73;1.60;;;;;;;;;;4999106;28;20225;-77
2021/12/29 02:35:32;;;;;;;1.70;1.60;;;;;;;;;;4999222;28;20217;-77
2021/12/29 02:38:00;;;;;;;2.03;1.47;;;;;;;;;;5015702;28;20180;-77
2021/12/29 02:40:26;;;;;;;2.23;1.53;;;;;;;;;;5015247;28;20174;-77
2021/12/29 02:42:52;;;;;;;1.43;1.20;;;;;;;;;;5015448;28;20656;-77
2021/12/29 02:45:22;;;;;;;1.50;1.40;;;;;;;;;;4999047;28;20281;-77
2021/12/29 02:47:48;;;;;;;2.43;1.30;;;;;;;;;;4999306;28;20718;-77
2021/12/29 02:50:15;;;;;;;1.27;1.17;;;;;;;;;;5015580;28;20212;-77
2021/12/29 02:52:42;;;;;;;1.20;1.10;;;;;;;;;;4999105;28;20221;-77
2021/12/29 02:55:08;;;;;;;1.30;1.20;;;;;;;;;;4998858;28;20213;-77
2021/12/29 02:57:34;;;;;;;1.50;1.40;;;;;;;;;;5015137;28;20204;-77
2021/12/29 03:00:00;;;;;;;1.33;1.10;;;;;;;;;;4998870;28;20174;-77
2021/12/29 03:02:26;;;;;;;1.60;1.30;;;;;;;;;;4998625;28;20213;-77
2021/12/29 03:04:53;;;;;;;1.37;1.20;;;;;;;;;;4998866;28;20646;-77
2021/12/29 03:07:19;;;;;;;1.30;1.20;;;;;;;;;;5015152;28;20189;-77
2021/12/29 03:09:45;;;;;;;1.33;1.23;;;;;;;;;;4998577;28;20204;-77
2021/12/29 03:12:11;;;;;;;1.40;1.30;;;;;;;;;;4998033;28;20198;-77
2021/12/29 03:14:37;;;;;;;1.60;1.50;;;;;;;;;;4998567;28;20231;-77
2021/12/29 03:17:03;;;;;;;1.50;1.30;;;;;;;;;;5014865;28;20178;-77
2021/12/29 03:19:29;;;;;;;1.80;1.27;;;;;;;;;;4998523;28;20184;-76
2021/12/29 03:21:55;;;;;;;1.50;1.40;;;;;;;;;;4998341;28;20183;-77
2021/12/29 03:24:21;;;;;;;1.70;1.60;;;;;;;;;;4998398;28;20189;-77
2021/12/29 03:26:47;;;;;;;1.70;1.57;;;;;;;;;;4998800;28;20186;-77
2021/12/29 03:29:13;;;;;;;2.03;1.67;;;;;;;;;;5014568;28;20182;-77
2021/12/29 03:31:41;;;;;;;1.73;1.63;;;;;;;;;;4998044;28;20221;-77
2021/12/29 03:34:07;;;;;;;1.90;1.70;;;;;;;;;;5014377;28;20257;-77
2021/12/29 03:36:34;;;;;;;1.50;1.40;;;;;;;;;;4998670;28;20278;-77
2021/12/29 03:39:00;;;;;;;2.07;1.87;;;;;;;;;;5014620;28;20206;-77
2021/12/29 03:41:26;;;;;;;2.13;1.90;;;;;;;;;;5013676;28;20203;-77
2021/12/29 03:43:52;;;;;;;2.47;1.93;;;;;;;;;;4998287;28;20186;-76
2021/12/29 03:46:19;;;;;;;2.80;2.07;;;;;;;;;;5014549;28;20660;-77
2021/12/29 03:48:46;;;;;;;1.80;1.70;;;;;;;;;;4998446;28;20193;-77
2021/12/29 03:51:12;;;;;;;2.43;1.50;;;;;;;;;;5014318;28;20197;-77
2021/12/29 03:53:38;;;;;;;2.63;1.80;;;;;;;;;;5014551;28;20178;-77
2021/12/29 03:56:05;;;;;;;1.77;1.57;;;;;;;;;;5014325;28;20229;-77
2021/12/29 03:58:31;;;;;;;1.80;1.53;;;;;;;;;;5014130;28;20178;-78
2021/12/29 04:01:01;;;;;;;1.57;1.47;;;;;;;;;;4998179;28;20181;-77
2021/12/29 04:03:27;;;;;;;1.53;1.40;;;;;;;;;;5014483;28;20182;-77
2021/12/29 04:05:53;;;;;;;1.67;1.40;;;;;;;;;;5014346;28;20205;-77
2021/12/29 04:08:20;;;;;;;1.30;1.20;;;;;;;;;;4997964;28;20190;-77
2021/12/29 04:10:46;;;;;;;1.20;1.10;;;;;;;;;;5013930;28;20182;-76
2021/12/29 04:13:12;;;;;;;1.40;1.30;;;;;;;;;;5013826;28;20201;-77
2021/12/29 04:15:38;;;;;;;1.30;1.20;;;;;;;;;;4997879;28;20292;-76
2021/12/29 04:18:14;;;;;;;1.30;1.10;;;;;;;;;;5014525;28;20179;-77
2021/12/29 04:20:57;;;;;;;1.40;1.20;;;;;;;;;;4999023;28;20180;-77
2021/12/29 04:23:31;;;;;;;1.40;1.30;;;;;;;;;;5014042;28;20182;-77
2021/12/29 04:25:58;;;;;;;1.30;1.20;;;;;;;;;;5014181;28;20236;-77
2021/12/29 04:28:25;;;;;;;1.20;1.10;;;;;;;;;;4998054;28;20229;-77
2021/12/29 04:30:52;;;;;;;1.10;1.00;;;;;;;;;;5014043;28;20198;-77
2021/12/29 04:33:19;;;;;;;2.33;1.30;;;;;;;;;;4997662;28;20218;-77
2021/12/29 04:35:46;;;;;;;1.40;1.30;;;;;;;;;;4997820;28;20712;-77
2021/12/29 04:38:12;;;;;;;1.60;1.50;;;;;;;;;;5014077;28;20585;-77
2021/12/29 04:40:38;;;;;;;1.60;1.50;;;;;;;;;;5013908;28;20174;-77
2021/12/29 04:43:04;;;;;;;1.90;1.40;;;;;;;;;;4997988;28;20183;-77
2021/12/29 04:45:30;;;;;;;1.50;1.40;;;;;;;;;;5013936;28;20202;-77
2021/12/29 04:47:56;;;;;;;1.60;1.50;;;;;;;;;;5013970;28;20178;-77
2021/12/29 04:50:26;;;;;;;1.40;1.30;;;;;;;;;;4997469;28;20187;-77
2021/12/29 04:52:56;;;;;;;2.37;1.53;;;;;;;;;;5016721;28;20627;-77
2021/12/29 04:55:22;;;;;;;1.40;1.30;;;;;;;;;;5017579;28;20304;-77
2021/12/29 04:57:48;;;;;;;1.97;1.33;;;;;;;;;;5017492;28;20189;-77
2021/12/29 05:00:15;;;;;;;1.83;1.50;;;;;;;;;;5001160;28;20533;-77
2021/12/29 05:02:41;;;;;;;2.07;1.70;;;;;;;;;;5001343;28;20220;-77
2021/12/29 05:05:20;;;;;;;1.80;1.70;;;;;;;;;;5000825;28;20224;-77
2021/12/29 05:10:31;;;;;;;2.50;1.83;;;;;;;;;;5020159;28;20209;-77
2021/12/29 05:12:57;;;;;;;2.30;1.87;;;;;;;;;;5000594;28;20242;-77
2021/12/29 05:15:23;;;;;;;2.27;1.60;;;;;;;;;;5000799;28;20230;-77
2021/12/29 05:17:49;;;;;;;1.77;1.67;;;;;;;;;;5016913;28;20185;-77
2021/12/29 05:20:15;;;;;;;2.07;1.80;;;;;;;;;;5000910;28;20179;-77
2021/12/29 05:22:41;;;;;;;2.33;1.70;;;;;;;;;;5016571;28;20190;-77
2021/12/29 05:25:07;;;;;;;2.10;1.80;;;;;;;;;;5016849;28;20201;-77
2021/12/29 05:27:33;;;;;;;1.80;1.60;;;;;;;;;;5000781;28;20181;-77
2021/12/29 05:30:02;;;;;;;1.77;1.67;;;;;;;;;;5000632;28;20728;-77
2021/12/29 05:32:30;;;;;;;1.50;1.40;;;;;;;;;;5000665;28;20687;-77
2021/12/29 05:34:56;;;;;;;1.50;1.40;;;;;;;;;;5001158;28;20288;-76
2021/12/29 05:37:22;;;;;;;1.87;1.50;;;;;;;;;;5000332;28;20208;-76
2021/12/29 05:39:48;;;;;;;1.70;1.60;;;;;;;;;;5016667;28;20289;-76
2021/12/29 05:42:14;;;;;;;1.57;1.47;;;;;;;;;;5000267;28;20273;-76
2021/12/29 05:44:40;;;;;;;2.33;1.60;;;;;;;;;;5000177;28;20216;-76
2021/12/29 05:47:06;;;;;;;2.63;1.57;;;;;;;;;;5016444;28;20200;-76
2021/12/29 05:49:32;;;;;;;1.87;1.70;;;;;;;;;;5000489;28;20186;-76
2021/12/29 05:51:58;;;;;;;1.70;1.60;;;;;;;;;;4999847;28;20214;-76
2021/12/29 05:54:24;;;;;;;1.60;1.50;;;;;;;;;;5016368;28;20206;-76
2021/12/29 05:56:50;;;;;;;1.70;1.40;;;;;;;;;;5000346;28;20189;-76
2021/12/29 05:59:16;;;;;;;1.73;1.63;;;;;;;;;;5000040;28;20182;-76
2021/12/29 06:01:44;;;;;;;1.50;1.40;;;;;;;;;;5016167;28;20178;-76
2021/12/29 06:04:10;;;;;;;1.40;1.30;;;;;;;;;;5015568;28;20178;-77
2021/12/29 06:06:36;;;;;;;1.27;1.17;;;;;;;;;;5016190;28;20702;-76
2021/12/29 06:09:03;;;;;;;1.70;1.50;;;;;;;;;;5016136;28;20228;-82
2021/12/29 06:11:29;;;;;;;1.40;1.30;;;;;;;;;;5015957;28;20637;-83
2021/12/29 06:13:55;;;;;;;1.20;1.10;;;;;;;;;;5016031;28;20248;-82
2021/12/29 06:16:21;;;;;;;1.30;1.20;;;;;;;;;;4999900;28;20308;-82
2021/12/29 06:18:47;;;;;;;1.70;1.20;;;;;;;;;;4999727;28;20656;-82
2021/12/29 06:21:16;;;;;;;1.50;1.30;;;;;;;;;;4999708;28;20218;-83
2021/12/29 06:23:46;;;;;;;1.47;1.20;;;;;;;;;;5015658;28;20201;-83
2021/12/29 06:26:12;;;;;;;1.30;1.20;;;;;;;;;;4999900;28;20345;-83
2021/12/29 06:28:39;;;;;;;1.20;1.10;;;;;;;;;;5015798;28;20273;-83
2021/12/29 06:31:05;;;;;;;1.20;1.10;;;;;;;;;;5015603;28;20182;-83
2021/12/29 06:33:31;;;;;;;0.90;0.90;;;;;;;;;;5015812;28;20198;-83
2021/12/29 06:35:57;;;;;;;0.80;0.80;;;;;;;;;;4999038;28;20348;-83
2021/12/29 06:38:23;;;;;;;1.37;1.03;;;;;;;;;;4999594;28;20219;-82
2021/12/29 06:40:49;;;;;;;1.30;1.20;;;;;;;;;;5015408;28;20174;-83
2021/12/29 06:43:15;;;;;;;1.50;1.20;;;;;;;;;;5015535;28;20189;-83
2021/12/29 06:45:41;;;;;;;1.40;1.30;;;;;;;;;;4999322;28;20209;-81
2021/12/29 06:48:07;;;;;;;1.77;1.57;;;;;;;;;;4999367;28;20190;-82
2021/12/29 06:50:34;;;;;;;2.40;2.00;;;;;;;;;;4998992;28;20189;-82
2021/12/29 06:53:00;;;;;;;7.43;3.93;;;;;;;;;;5015108;28;20256;-82
2021/12/29 06:55:26;;;;;;;2.47;1.60;;;;;;;;;;5015171;28;20201;-82
2021/12/29 06:57:52;;;;;;;1.70;1.60;;;;;;;;;;4998808;28;20277;-82
2021/12/29 07:00:19;;;;;;;2.43;1.60;;;;;;;;;;5015062;28;20204;-82
2021/12/29 07:02:45;;;;;;;1.50;1.40;;;;;;;;;;4999130;28;20186;-83
2021/12/29 07:05:11;;;;;;;3.03;2.37;;;;;;;;;;5015358;28;20297;-83
2021/12/29 07:07:38;;;;;;;3.47;2.30;;;;;;;;;;4998824;28;20190;-82
2021/12/29 07:10:04;;;;;;;2.80;1.80;;;;;;;;;;4998827;28;20225;-82
2021/12/29 07:12:30;;;;;;;2.50;2.10;;;;;;;;;;4998463;28;20210;-83
2021/12/29 07:14:56;;;;;;;2.17;1.80;;;;;;;;;;5014205;28;20286;-82
2021/12/29 07:17:23;;;;;;;4.37;2.27;;;;;;;;;;4998769;28;20281;-86
2021/12/29 07:19:49;;;;;;;3.67;1.80;;;;;;;;;;5017259;28;20210;-78
2021/12/29 07:22:15;;;;;;;1.83;1.60;;;;;;;;;;5001017;28;20186;-77
2021/12/29 07:24:41;;;;;;;2.00;1.80;;;;;;;;;;5016568;28;20292;-78
2021/12/29 07:27:07;;;;;;;2.23;1.80;;;;;;;;;;5016682;28;20174;-77
2021/12/29 07:29:33;;;;;;;2.13;1.87;;;;;;;;;;5000137;28;20182;-76
2021/12/29 07:32:01;;;;;;;2.73;1.80;;;;;;;;;;4999289;28;20202;-78
2021/12/29 07:34:28;;;;;;;2.40;2.00;;;;;;;;;;4999490;28;20210;-79
2021/12/29 07:36:54;;;;;;;2.50;2.20;;;;;;;;;;5015459;28;20177;-77
2021/12/29 07:39:20;;;;;;;2.67;2.10;;;;;;;;;;4998845;28;20529;-79
2021/12/29 07:41:47;;;;;;;2.20;2.00;;;;;;;;;;5014851;28;20189;-79
2021/12/29 07:44:14;;;;;;;1.67;1.50;;;;;;;;;;5014956;28;20209;-79
2021/12/29 07:46:43;;;;;;;3.47;1.40;;;;;;;;;;5014917;28;20265;-77
2021/12/29 07:49:09;;;;;;;1.20;1.10;;;;;;;;;;5015387;28;20190;-77
2021/12/29 07:51:35;;;;;;;1.23;1.10;;;;;;;;;;4999664;28;20206;-79
2021/12/29 07:54:01;;;;;;;1.10;1.00;;;;;;;;;;5014614;28;20177;-79
2021/12/29 07:56:27;;;;;;;1.10;1.00;;;;;;;;;;5014308;28;20197;-79
2021/12/29 07:58:54;;;;;;;1.20;1.10;;;;;;;;;;5014478;28;20188;-79
2021/12/29 08:01:20;;;;;;;1.07;1.00;;;;;;;;;;4997960;28;20175;-79
2021/12/29 08:03:46;;;;;;;1.30;1.20;;;;;;;;;;5014951;28;20181;-79
2021/12/29 08:06:12;;;;;;;2.50;1.10;;;;;;;;;;4997976;28;20359;-79
2021/12/29 08:08:38;;;;;;;1.10;1.00;;;;;;;;;;4998239;28;20280;-79
2021/12/29 08:11:04;;;;;;;1.30;1.10;;;;;;;;;;4998297;28;20178;-80
2021/12/29 08:13:30;;;;;;;1.93;1.10;;;;;;;;;;5014508;28;20247;-80
2021/12/29 08:15:56;;;;;;;1.50;1.40;;;;;;;;;;4998030;28;20221;-80
2021/12/29 08:18:22;;;;;;;1.33;1.23;;;;;;;;;;4998190;28;20181;-80
2021/12/29 08:20:48;;;;;;;1.40;1.30;;;;;;;;;;4998009;28;20205;-81
2021/12/29 08:23:14;;;;;;;2.13;1.80;;;;;;;;;;4997989;28;20649;-80
2021/12/29 08:25:40;;;;;;;2.63;1.67;;;;;;;;;;5014507;28;20281;-80
2021/12/29 08:28:06;;;;;;;2.80;2.20;;;;;;;;;;5017700;28;20275;-80
2021/12/29 08:30:33;;;;;;;3.03;2.00;;;;;;;;;;5001554;28;20202;-80
2021/12/29 08:32:59;;;;;;;2.67;1.90;;;;;;;;;;5017853;28;20206;-79
2021/12/29 08:35:27;;;;;;;2.53;2.10;;;;;;;;;;5001954;28;20216;-79
2021/12/29 08:37:53;;;;;;;2.50;2.30;;;;;;;;;;5017960;28;20193;-78
2021/12/29 08:40:19;;;;;;;2.90;2.60;;;;;;;;;;5001947;28;20182;-78
2021/12/29 08:42:47;;;;;;;3.43;2.87;;;;;;;;;;5001963;28;20324;-77
2021/12/29 08:45:15;;;;;;;3.10;2.80;;;;;;;;;;5029796;28;20202;-79
2021/12/29 08:47:41;;;;;;;4.40;2.60;;;;;;;;;;5018329;28;20269;-77
2021/12/29 08:50:08;;;;;;;3.30;2.70;;;;;;;;;;5017961;28;20187;-78
2021/12/29 08:52:35;;;;;;;3.77;3.37;;;;;;;;;;5034178;28;20207;-78
2021/12/29 08:55:02;;;;;;;3.63;3.10;;;;;;;;;;5018260;28;20254;-80
2021/12/29 08:57:28;;;;;;;4.73;3.57;;;;;;;;;;5018771;28;20181;-77
2021/12/29 08:59:54;;;;;;;6.87;6.00;;;;;;;;;;5017827;28;20178;-78
2021/12/29 09:02:20;;;;;;;13.60;10.97;;;;;;;;;;5017982;28;20182;-78
2021/12/29 09:04:46;;;;;;;4.70;4.17;;;;;;;;;;5018068;28;20209;-77
2021/12/29 09:07:12;;;;;;;4.90;4.20;;;;;;;;;;5018041;28;20213;-78
2021/12/29 09:09:38;;;;;;;6.67;5.20;;;;;;;;;;5033859;28;20187;-78
2021/12/29 09:12:05;;;;;;;3.60;3.30;;;;;;;;;;5017308;28;20288;-77
2021/12/29 09:14:31;;;;;;;4.43;3.40;;;;;;;;;;5017159;28;20204;-78
2021/12/29 09:16:57;;;;;;;3.60;3.30;;;;;;;;;;5033520;28;20261;-79
2021/12/29 09:19:23;;;;;;;3.97;2.73;;;;;;;;;;5033551;28;20193;-78
2021/12/29 09:21:53;;;;;;;3.60;2.60;;;;;;;;;;5016886;28;20183;-78
2021/12/29 09:24:19;;;;;;;5.30;4.37;;;;;;;;;;5033683;28;20186;-78
2021/12/29 09:26:45;;;;;;;2.80;2.40;;;;;;;;;;5017306;28;20190;-81
2021/12/29 09:29:11;;;;;;;5.70;5.20;;;;;;;;;;5033454;28;20178;-78
2021/12/29 09:31:37;;;;;;;7.33;5.70;;;;;;;;;;5016579;28;20184;-78
2021/12/29 09:34:03;;;;;;;7.10;5.80;;;;;;;;;;5033511;28;20626;-79
2021/12/29 09:36:29;;;;;;;8.30;6.20;;;;;;;;;;5016752;28;20202;-79
2021/12/29 09:38:55;;;;;;;2.73;2.53;;;;;;;;;;5032301;28;20182;-79
2021/12/29 09:41:21;;;;;;;3.40;3.10;;;;;;;;;;5016548;28;20261;-79
2021/12/29 09:43:48;;;;;;;2.90;2.60;;;;;;;;;;5033139;28;20553;-78
2021/12/29 09:46:15;;;;;;;2.27;2.07;;;;;;;;;;5032811;28;20665;-79
2021/12/29 09:48:41;;;;;;;2.90;2.57;;;;;;;;;;5032843;28;20266;-79
2021/12/29 09:51:11;;;;;;;2.60;2.40;;;;;;;;;;5032822;28;20671;-78
2021/12/29 09:53:37;;;;;;;2.97;2.33;;;;;;;;;;5016760;28;20267;-79
2021/12/29 09:56:03;;;;;;;2.37;2.03;;;;;;;;;;5032906;28;20635;-80
2021/12/29 09:58:29;;;;;;;3.80;2.00;;;;;;;;;;5032456;28;20179;-79
2021/12/29 10:00:57;;;;;;;2.40;1.93;;;;;;;;;;5016063;28;20186;-79
2021/12/29 10:03:24;;;;;;;2.80;2.20;;;;;;;;;;5016684;28;20190;-79
2021/12/29 10:05:52;;;;;;;3.47;2.50;;;;;;;;;;5032790;28;20235;-79
2021/12/29 10:08:18;;;;;;;9.00;5.47;;;;;;;;;;5016470;28;20213;-80
2021/12/29 10:10:46;;;;;;;13.60;8.10;;;;;;;;;;5032481;28;20183;-80
2021/12/29 10:13:12;;;;;;;8.80;5.47;;;;;;;;;;5016138;28;20605;-80
2021/12/29 10:15:43;;;;;;;5.43;3.40;;;;;;;;;;5032348;28;20245;-80
2021/12/29 10:18:11;;;;;;;12.23;6.17;;;;;;;;;;5015940;28;20202;-79
2021/12/29 10:20:57;;;;;;;11.93;6.27;;;;;;;;;;5032207;28;20217;-81
2021/12/29 10:23:31;;;;;;;6.50;4.10;;;;;;;;;;5032447;28;20735;-80
2021/12/29 10:26:04;;;;;;;9.97;4.47;;;;;;;;;;5015779;28;20211;-80
2021/12/29 10:28:31;;;;;;;12.03;5.27;;;;;;;;;;5032477;28;20197;-78
2021/12/29 10:30:59;;;;;;;11.20;5.50;;;;;;;;;;5015892;28;20189;-79
2021/12/29 10:33:26;;;;;;;17.87;7.80;;;;;;;;;;5032944;28;20224;-82
2021/12/29 10:35:52;;;;;;;10.17;5.50;;;;;;;;;;5015745;28;20214;-80
2021/12/29 10:38:20;;;;;;;6.13;3.57;;;;;;;;;;5032045;28;20174;-79
2021/12/29 10:40:46;;;;;;;6.97;4.53;;;;;;;;;;5031891;28;20572;-81
2021/12/29 10:43:13;;;;;;;3.67;2.50;;;;;;;;;;5032130;28;20175;-80
2021/12/29 10:45:41;;;;;;;7.73;4.30;;;;;;;;;;5032487;28;20197;-79
2021/12/29 10:48:37;;;;;;;7.97;6.00;;;;;;;;;;5015863;28;20633;-80
2021/12/29 10:51:03;;;;;;;6.90;4.93;;;;;;;;;;5015097;28;20273;-79
2021/12/29 10:53:30;;;;;;;5.17;4.17;;;;;;;;;;5032059;28;20298;-79
2021/12/29 10:55:56;;;;;;;4.97;3.70;;;;;;;;;;5031948;28;20241;-79
2021/12/29 10:58:24;;;;;;;3.57;3.13;;;;;;;;;;5031654;28;20247;-80
2021/12/29 11:00:57;;;;;;;7.73;4.77;;;;;;;;;;5031586;28;20250;-79
2021/12/29 11:03:24;;;;;;;3.40;2.93;;;;;;;;;;5031633;28;20178;-80
2021/12/29 11:05:58;;;;;;;7.37;5.50;;;;;;;;;;5031770;28;20211;-80
2021/12/29 11:08:24;;;;;;;3.27;2.80;;;;;;;;;;5031740;28;20557;-77
2021/12/29 11:10:53;;;;;;;3.67;3.10;;;;;;;;;;5015288;28;20186;-77
2021/12/29 11:13:30;;;;;;;3.30;2.70;;;;;;;;;;5031483;28;20302;-78
2021/12/29 11:15:56;;;;;;;3.23;2.77;;;;;;;;;;5015022;28;20194;-77
2021/12/29 11:18:23;;;;;;;4.00;3.40;;;;;;;;;;5031453;28;20523;-79
2021/12/29 11:20:56;;;;;;;4.00;3.60;;;;;;;;;;5031456;28;20179;-79
2021/12/29 11:23:23;;;;;;;5.87;3.60;;;;;;;;;;5031749;28;20180;-77
2021/12/29 11:25:50;;;;;;;3.90;3.20;;;;;;;;;;5031642;28;20226;-78
2021/12/29 11:28:34;;;;;;;3.70;2.90;;;;;;;;;;5031669;28;20188;-77
2021/12/29 11:31:04;;;;;;;8.57;4.60;;;;;;;;;;5015078;28;20180;-78
2021/12/29 11:33:31;;;;;;;3.00;2.70;;;;;;;;;;5031193;28;20216;-79
2021/12/29 11:35:57;;;;;;;5.30;4.47;;;;;;;;;;5074451;22;20222;-82
2021/12/29 11:38:23;;;;;;;4.27;3.60;;;;;;;;;;5069782;28;20236;-81
2021/12/29 11:40:55;;;;;;;3.43;2.97;;;;;;;;;;5097488;28;20224;-82
2021/12/29 11:43:22;;;;;;;3.50;3.20;;;;;;;;;;5078677;28;20183;-81
2021/12/29 11:45:49;;;;;;;3.33;3.03;;;;;;;;;;5072980;28;20665;-82
2021/12/29 11:48:17;;;;;;;3.60;2.90;;;;;;;;;;5088213;28;20178;-82
2021/12/29 11:50:48;;;;;;;4.00;3.20;;;;;;;;;;5071698;28;20207;-82
2021/12/29 11:53:38;;;;;;;3.77;3.10;;;;;;;;;;5072560;28;20190;-82
2021/12/29 11:56:08;;;;;;;5.07;3.70;;;;;;;;;;5063755;28;20206;-82
2021/12/29 11:58:37;;;;;;;4.93;4.03;;;;;;;;;;5088265;28;20261;-82
2021/12/29 12:01:06;;;;;;;4.70;4.20;;;;;;;;;;5088387;28;20258;-82
2021/12/29 12:03:45;;;;;;;5.40;4.10;;;;;;;;;;5092817;28;20170;-82
2021/12/29 12:06:30;;;;;;;4.17;3.77;;;;;;;;;;5076773;28;20223;-82
2021/12/29 12:09:05;;;;;;;5.70;4.30;;;;;;;;;;5092266;28;20173;-82
2021/12/29 12:11:31;;;;;;;5.57;4.23;;;;;;;;;;5092171;28;20173;-82
2021/12/29 12:13:57;;;;;;;5.83;4.27;;;;;;;;;;5092349;28;20204;-82
2021/12/29 12:16:26;;;;;;;37.63;17.47;;;;;;;;;;5076242;28;20197;-82
2021/12/29 12:18:53;;;;;;;11.83;6.30;;;;;;;;;;5092525;28;20277;-82
2021/12/29 12:21:29;;;;;;;21.17;10.73;;;;;;;;;;5091985;28;20241;-82
2021/12/29 12:24:08;;;;;;;13.40;7.13;;;;;;;;;;5075080;28;20181;-82
2021/12/29 12:26:34;;;;;;;10.83;6.23;;;;;;;;;;5092000;28;20247;-82
2021/12/29 12:29:00;;;;;;;5.83;4.27;;;;;;;;;;5091933;28;20551;-82
2021/12/29 12:31:29;;;;;;;5.87;3.80;;;;;;;;;;5075071;28;20177;-82
2021/12/29 12:34:07;;;;;;;5.53;4.03;;;;;;;;;;5092036;28;20190;-82
2021/12/29 12:36:33;;;;;;;6.27;4.30;;;;;;;;;;5091722;28;20720;-82
2021/12/29 12:39:10;;;;;;;7.70;5.23;;;;;;;;;;5074916;28;20196;-82
2021/12/29 12:41:37;;;;;;;6.13;4.57;;;;;;;;;;5091365;28;20306;-82
2021/12/29 12:44:04;;;;;;;20.73;10.53;;;;;;;;;;5074877;28;20189;-82
2021/12/29 12:46:30;;;;;;;10.97;6.27;;;;;;;;;;5074604;28;20201;-82
2021/12/29 12:48:56;;;;;;;11.03;6.00;;;;;;;;;;5091409;28;20190;-82
2021/12/29 12:51:23;;;;;;;12.73;7.63;;;;;;;;;;5091277;28;20184;-82
2021/12/29 12:53:49;;;;;;;14.60;7.83;;;;;;;;;;5091458;28;20201;-82
2021/12/29 12:56:17;;;;;;;12.60;7.60;;;;;;;;;;5091704;28;20197;-82
2021/12/29 12:58:45;;;;;;;9.27;6.70;;;;;;;;;;5091502;28;20316;-82
2021/12/29 13:01:13;;;;;;;12.50;7.00;;;;;;;;;;5090943;28;20173;-80
2021/12/29 13:03:39;;;;;;;13.60;7.50;;;;;;;;;;5091093;28;20552;-82
2021/12/29 13:06:05;;;;;;;11.77;6.97;;;;;;;;;;5090732;28;20209;-81
2021/12/29 13:08:36;;;;;;;27.43;11.83;;;;;;;;;;5074027;28;20185;-80
2021/12/29 13:11:09;;;;;;;6.30;5.23;;;;;;;;;;5073863;28;20236;-81
2021/12/29 13:13:37;;;;;;;9.87;6.40;;;;;;;;;;5090714;28;20615;-80
2021/12/29 13:16:05;;;;;;;15.30;8.20;;;;;;;;;;5090858;28;20205;-83
2021/12/29 13:18:32;;;;;;;8.80;5.77;;;;;;;;;;5073881;28;20176;-83
2021/12/29 13:21:03;;;;;;;12.27;7.10;;;;;;;;;;5090411;28;20185;-83
2021/12/29 13:23:29;;;;;;;17.97;9.17;;;;;;;;;;5090983;28;20186;-84
2021/12/29 13:25:56;;;;;;;7.90;5.23;;;;;;;;;;5073771;28;20201;-83
2021/12/29 13:28:23;;;;;;;6.50;4.97;;;;;;;;;;5090433;28;20236;-83
2021/12/29 13:30:55;;;;;;;17.50;9.17;;;;;;;;;;5073944;28;20176;-83
2021/12/29 13:33:28;;;;;;;7.03;4.70;;;;;;;;;;5090442;28;20554;-83
2021/12/29 13:35:56;;;;;;;5.20;4.70;;;;;;;;;;5090141;28;20214;-83
2021/12/29 13:38:23;;;;;;;20.33;9.77;;;;;;;;;;5090594;28;20175;-83
2021/12/29 13:40:54;;;;;;;13.93;8.27;;;;;;;;;;5073441;28;20549;-83
2021/12/29 13:43:21;;;;;;;6.50;4.80;;;;;;;;;;5073437;28;20223;-83
2021/12/29 13:45:53;;;;;;;5.20;3.80;;;;;;;;;;5090075;28;20225;-83
2021/12/29 13:48:21;;;;;;;7.80;4.43;;;;;;;;;;5090404;28;20777;-83
2021/12/29 13:51:05;;;;;;;6.23;4.63;;;;;;;;;;5089828;28;20185;-83
2021/12/29 13:53:33;;;;;;;10.90;6.33;;;;;;;;;;5089915;28;20669;-83
2021/12/29 13:56:13;;;;;;;6.73;4.20;;;;;;;;;;5073246;28;20199;-84
2021/12/29 13:58:40;;;;;;;7.90;5.27;;;;;;;;;;5090034;28;20181;-83
2021/12/29 14:01:06;;;;;;;5.30;4.43;;;;;;;;;;5089881;28;20180;-83
2021/12/29 14:03:33;;;;;;;6.30;4.57;;;;;;;;;;5074234;28;20170;-83
2021/12/29 14:06:00;;;;;;;5.10;4.40;;;;;;;;;;5089634;28;20203;-83
2021/12/29 14:08:26;;;;;;;4.87;4.20;;;;;;;;;;5089971;28;20178;-83
2021/12/29 14:10:52;;;;;;;5.87;4.40;;;;;;;;;;5072730;28;20190;-83
2021/12/29 14:13:20;;;;;;;6.73;4.53;;;;;;;;;;5073979;28;20244;-83
2021/12/29 14:15:48;;;;;;;6.87;4.30;;;;;;;;;;5072770;28;20198;-83
2021/12/29 14:18:16;;;;;;;4.87;3.80;;;;;;;;;;5089690;28;20265;-83
2021/12/29 14:20:42;;;;;;;5.77;4.33;;;;;;;;;;5089226;28;20176;-83
2021/12/29 14:23:08;;;;;;;7.23;4.43;;;;;;;;;;5089523;28;20177;-83
2021/12/29 14:25:35;;;;;;;5.90;4.17;;;;;;;;;;5088787;28;20194;-83
2021/12/29 14:28:01;;;;;;;5.33;3.97;;;;;;;;;;5073059;28;20619;-83
2021/12/29 14:30:27;;;;;;;5.10;3.93;;;;;;;;;;5072818;28;20747;-83
2021/12/29 14:32:53;;;;;;;5.47;4.00;;;;;;;;;;5089324;28;20208;-83
2021/12/29 14:35:19;;;;;;;5.73;3.83;;;;;;;;;;5089198;28;20629;-79
2021/12/29 14:37:45;;;;;;;6.90;4.37;;;;;;;;;;5089402;28;20178;-82
2021/12/29 14:40:20;;;;;;;11.33;7.23;;;;;;;;;;5072456;28;20203;-82
2021/12/29 14:42:46;;;;;;;10.83;6.90;;;;;;;;;;5089155;28;20187;-82
2021/12/29 14:45:12;;;;;;;10.40;7.10;;;;;;;;;;5072330;28;20207;-82